Mount Rushmore Natl Memorial, South Dakota
Current Conditions -  °F | °C
As of 6:53 PM on Wednesday 22 Oct 2014 (Local Time) from KCUT Reporting Station
Clear Clear  
Wind Chill: 44°   Ceiling: Unl
Heat Index: 44°   Visibility: 10mi
Dew Point: 24°   Wind: 3mph
Humidity: 45%   Direction: 30°NNE
Pressure: 30.07"   Gusts: NA
Location:  43.88°N, 103.45°W
Report Text: KCUT 230053Z AUTO 03003KT 10SM CLR 07/M04 A3007 RMK AO2 SLP164 T00671044
Loading
Personal Weather Stations






























Interactive Weather Map
Tropical Storm Tracking
New forecast layout! Learn more

10-Day Weather Forecast

Advertisements
Track Severe Weather on mobile